sensor_id;sensor_type;location;lat;lon;timestamp;pressure;altitude;pressure_sealevel;temperature;humidity
58311;BME280;45001;52.218;5.154;2022-10-16T00:00:56;100893.84;;;18.02;60.31
58311;BME280;45001;52.218;5.154;2022-10-16T00:03:21;100900.25;;;18.01;60.27
58311;BME280;45001;52.218;5.154;2022-10-16T00:05:46;100897.56;;;18.01;60.21
58311;BME280;45001;52.218;5.154;2022-10-16T00:08:12;100895.91;;;18.00;60.42
58311;BME280;45001;52.218;5.154;2022-10-16T00:10:38;100901.31;;;18.00;60.27
58311;BME280;45001;52.218;5.154;2022-10-16T00:13:04;100895.06;;;18.00;60.13
58311;BME280;45001;52.218;5.154;2022-10-16T00:15:31;100896.94;;;17.99;60.33
58311;BME280;45001;52.218;5.154;2022-10-16T00:17:57;100902.50;;;17.98;60.18
58311;BME280;45001;52.218;5.154;2022-10-16T00:20:22;100894.22;;;17.99;60.49
58311;BME280;45001;52.218;5.154;2022-10-16T00:22:48;100895.25;;;17.98;60.09
58311;BME280;45001;52.218;5.154;2022-10-16T00:25:13;100880.09;;;17.97;60.24
58311;BME280;45001;52.218;5.154;2022-10-16T00:27:38;100880.94;;;17.98;60.26
58311;BME280;45001;52.218;5.154;2022-10-16T00:30:04;100873.66;;;17.98;60.01
58311;BME280;45001;52.218;5.154;2022-10-16T00:32:30;100875.34;;;17.99;60.13
58311;BME280;45001;52.218;5.154;2022-10-16T00:34:55;100883.63;;;17.98;60.34
58311;BME280;45001;52.218;5.154;2022-10-16T00:37:21;100880.94;;;17.98;60.10
58311;BME280;45001;52.218;5.154;2022-10-16T00:39:46;100882.81;;;17.97;60.18
58311;BME280;45001;52.218;5.154;2022-10-16T00:42:16;100885.50;;;17.97;60.05
58311;BME280;45001;52.218;5.154;2022-10-16T00:44:43;100880.09;;;17.97;60.12
58311;BME280;45001;52.218;5.154;2022-10-16T00:47:12;100890.06;;;17.97;60.46
58311;BME280;45001;52.218;5.154;2022-10-16T00:49:38;100894.59;;;17.96;60.18
58311;BME280;45001;52.218;5.154;2022-10-16T00:52:05;100885.88;;;17.94;60.24
58311;BME280;45001;52.218;5.154;2022-10-16T00:54:32;100893.97;;;17.94;60.05
58311;BME280;45001;52.218;5.154;2022-10-16T00:57:01;100889.63;;;17.93;59.74
58311;BME280;45001;52.218;5.154;2022-10-16T00:59:32;100895.66;;;17.95;60.14
58311;BME280;45001;52.218;5.154;2022-10-16T01:01:58;100898.56;;;17.94;59.97
58311;BME280;45001;52.218;5.154;2022-10-16T01:04:25;100888.59;;;17.94;59.95
58311;BME280;45001;52.218;5.154;2022-10-16T01:07:06;100889.81;;;17.92;59.92
58311;BME280;45001;52.218;5.154;2022-10-16T01:09:44;100884.25;;;17.93;59.99
58311;BME280;45001;52.218;5.154;2022-10-16T01:12:16;100873.84;;;17.90;59.95
58311;BME280;45001;52.218;5.154;2022-10-16T01:17:43;100887.94;;;17.92;59.97
58311;BME280;45001;52.218;5.154;2022-10-16T01:20:19;100882.56;;;17.92;60.04
58311;BME280;45001;52.218;5.154;2022-10-16T01:23:05;100880.91;;;17.91;59.93
58311;BME280;45001;52.218;5.154;2022-10-16T01:28:12;100880.91;;;17.91;59.94
58311;BME280;45001;52.218;5.154;2022-10-16T01:30:40;100885.25;;;17.92;59.99
58311;BME280;45001;52.218;5.154;2022-10-16T01:33:12;100870.75;;;17.93;59.90
58311;BME280;45001;52.218;5.154;2022-10-16T01:35:47;100864.72;;;17.91;59.65
58311;BME280;45001;52.218;5.154;2022-10-16T01:38:31;100886.31;;;17.91;60.04
58311;BME280;45001;52.218;5.154;2022-10-16T01:41:11;100885.44;;;17.91;59.86
58311;BME280;45001;52.218;5.154;2022-10-16T01:43:45;100867.63;;;17.90;59.71
58311;BME280;45001;52.218;5.154;2022-10-16T01:46:14;100867.44;;;17.91;60.02
58311;BME280;45001;52.218;5.154;2022-10-16T01:48:40;100879.88;;;17.92;60.01
58311;BME280;45001;52.218;5.154;2022-10-16T01:51:09;100884.44;;;17.92;59.90
58311;BME280;45001;52.218;5.154;2022-10-16T01:53:36;100875.50;;;17.91;59.79
58311;BME280;45001;52.218;5.154;2022-10-16T01:56:03;100886.31;;;17.91;59.95
58311;BME280;45001;52.218;5.154;2022-10-16T01:58:33;100891.91;;;17.90;60.08
58311;BME280;45001;52.218;5.154;2022-10-16T02:01:01;100891.69;;;17.91;59.75
58311;BME280;45001;52.218;5.154;2022-10-16T02:03:28;100891.69;;;17.91;60.11
58311;BME280;45001;52.218;5.154;2022-10-16T02:05:55;100890.03;;;17.90;60.01
58311;BME280;45001;52.218;5.154;2022-10-16T02:08:23;100895.41;;;17.90;59.90
58311;BME280;45001;52.218;5.154;2022-10-16T02:10:49;100895.41;;;17.90;60.09
58311;BME280;45001;52.218;5.154;2022-10-16T02:15:45;100903.69;;;17.89;60.05
58311;BME280;45001;52.218;5.154;2022-10-16T02:18:11;100905.56;;;17.88;60.03
58311;BME280;45001;52.218;5.154;2022-10-16T02:20:45;100907.25;;;17.89;60.00
58311;BME280;45001;52.218;5.154;2022-10-16T02:23:16;100909.94;;;17.89;60.08
58311;BME280;45001;52.218;5.154;2022-10-16T02:25:44;100919.88;;;17.89;59.90
58311;BME280;45001;52.218;5.154;2022-10-16T02:28:17;100919.88;;;17.89;60.12
58311;BME280;45001;52.218;5.154;2022-10-16T02:30:47;100917.38;;;17.87;59.98
58311;BME280;45001;52.218;5.154;2022-10-16T02:33:15;100921.75;;;17.88;59.94
58311;BME280;45001;52.218;5.154;2022-10-16T02:35:43;100914.69;;;17.87;59.84
58311;BME280;45001;52.218;5.154;2022-10-16T02:38:11;100928.16;;;17.87;60.05
58311;BME280;45001;52.218;5.154;2022-10-16T02:40:37;100922.78;;;17.87;60.03
58311;BME280;45001;52.218;5.154;2022-10-16T02:43:04;100927.34;;;17.87;60.05
58311;BME280;45001;52.218;5.154;2022-10-16T02:45:29;100928.16;;;17.87;59.95
58311;BME280;45001;52.218;5.154;2022-10-16T02:47:55;100928.16;;;17.87;59.99
58311;BME280;45001;52.218;5.154;2022-10-16T02:50:20;100927.53;;;17.85;59.99
58311;BME280;45001;52.218;5.154;2022-10-16T02:52:46;100926.50;;;17.86;60.00
58311;BME280;45001;52.218;5.154;2022-10-16T02:55:11;100934.59;;;17.86;59.94
58311;BME280;45001;52.218;5.154;2022-10-16T02:57:36;100930.22;;;17.85;60.12
58311;BME280;45001;52.218;5.154;2022-10-16T03:00:04;100932.09;;;17.85;60.07
58311;BME280;45001;52.218;5.154;2022-10-16T03:02:30;100920.47;;;17.84;59.95
58311;BME280;45001;52.218;5.154;2022-10-16T03:04:55;100933.94;;;17.84;59.98
58311;BME280;45001;52.218;5.154;2022-10-16T03:07:20;100922.28;;;17.83;59.99
58311;BME280;45001;52.218;5.154;2022-10-16T03:09:46;100918.63;;;17.85;60.08
58311;BME280;45001;52.218;5.154;2022-10-16T03:12:11;100917.75;;;17.84;60.08
58311;BME280;45001;52.218;5.154;2022-10-16T03:14:37;100918.44;;;17.93;59.66
58311;BME280;45001;52.218;5.154;2022-10-16T03:17:02;100915.00;;;18.06;59.56
58311;BME280;45001;52.218;5.154;2022-10-16T03:19:27;100911.34;;;18.20;59.16
58311;BME280;45001;52.218;5.154;2022-10-16T03:21:53;100919.31;;;18.35;58.70
58311;BME280;45001;52.218;5.154;2022-10-16T03:24:18;100916.72;;;18.55;58.30
58311;BME280;45001;52.218;5.154;2022-10-16T03:26:43;100927.38;;;18.76;57.66
58311;BME280;45001;52.218;5.154;2022-10-16T03:29:09;100923.31;;;18.94;57.16
58311;BME280;45001;52.218;5.154;2022-10-16T03:31:34;100937.91;;;19.13;56.75
58311;BME280;45001;52.218;5.154;2022-10-16T03:33:59;100935.66;;;19.30;56.25
58311;BME280;45001;52.218;5.154;2022-10-16T03:36:24;100948.16;;;19.44;56.07
58311;BME280;45001;52.218;5.154;2022-10-16T03:38:50;100951.88;;;19.56;55.57
58311;BME280;45001;52.218;5.154;2022-10-16T03:41:15;100952.94;;;19.69;55.44
58311;BME280;45001;52.218;5.154;2022-10-16T03:43:41;100959.19;;;19.83;55.24
58311;BME280;45001;52.218;5.154;2022-10-16T03:46:06;100951.91;;;19.90;55.12
58311;BME280;45001;52.218;5.154;2022-10-16T03:48:31;100950.44;;;19.94;54.93
58311;BME280;45001;52.218;5.154;2022-10-16T03:50:57;100946.69;;;20.02;54.81
58311;BME280;45001;52.218;5.154;2022-10-16T03:53:22;100947.94;;;20.06;54.77
58311;BME280;45001;52.218;5.154;2022-10-16T03:55:48;100948.09;;;20.11;54.73
58311;BME280;45001;52.218;5.154;2022-10-16T03:58:13;100948.94;;;20.18;54.64
58311;BME280;45001;52.218;5.154;2022-10-16T04:00:43;100954.13;;;20.20;54.76
58311;BME280;45001;52.218;5.154;2022-10-16T04:03:09;100968.94;;;20.17;54.61
58311;BME280;45001;52.218;5.154;2022-10-16T04:05:35;100966.84;;;20.12;54.73
58311;BME280;45001;52.218;5.154;2022-10-16T04:08:01;100965.63;;;20.15;54.91
58311;BME280;45001;52.218;5.154;2022-10-16T04:10:26;100962.25;;;20.20;54.94
58311;BME280;45001;52.218;5.154;2022-10-16T04:12:51;100962.47;;;20.18;54.87
58311;BME280;45001;52.218;5.154;2022-10-16T04:15:19;100963.31;;;20.12;55.13
58311;BME280;45001;52.218;5.154;2022-10-16T04:17:44;100973.31;;;20.05;55.30
58311;BME280;45001;52.218;5.154;2022-10-16T04:20:10;100980.59;;;19.98;55.46
58311;BME280;45001;52.218;5.154;2022-10-16T04:22:35;100981.47;;;19.91;55.71
58311;BME280;45001;52.218;5.154;2022-10-16T04:25:00;100986.03;;;19.84;55.90
58311;BME280;45001;52.218;5.154;2022-10-16T04:27:26;100981.66;;;19.77;56.10
58311;BME280;45001;52.218;5.154;2022-10-16T04:29:51;100993.50;;;19.69;56.21
58311;BME280;45001;52.218;5.154;2022-10-16T04:32:16;100999.53;;;19.64;56.55
58311;BME280;45001;52.218;5.154;2022-10-16T04:34:41;101000.34;;;19.58;56.66
58311;BME280;45001;52.218;5.154;2022-10-16T04:37:07;101007.41;;;19.52;56.59
58311;BME280;45001;52.218;5.154;2022-10-16T04:39:32;101009.91;;;19.47;56.81
58311;BME280;45001;52.218;5.154;2022-10-16T04:41:58;101007.81;;;19.43;57.01
58311;BME280;45001;52.218;5.154;2022-10-16T04:44:23;101020.09;;;19.39;57.23
58311;BME280;45001;52.218;5.154;2022-10-16T04:46:50;101012.59;;;19.34;57.35
58311;BME280;45001;52.218;5.154;2022-10-16T04:49:16;101018.41;;;19.31;57.46
58311;BME280;45001;52.218;5.154;2022-10-16T04:51:41;101010.72;;;19.28;57.45
58311;BME280;45001;52.218;5.154;2022-10-16T04:54:06;101020.28;;;19.24;57.67
58311;BME280;45001;52.218;5.154;2022-10-16T04:56:31;101016.94;;;19.22;57.59
58311;BME280;45001;52.218;5.154;2022-10-16T04:58:57;101031.88;;;19.17;57.67
58311;BME280;45001;52.218;5.154;2022-10-16T05:01:22;101034.56;;;19.17;57.72
58311;BME280;45001;52.218;5.154;2022-10-16T05:03:48;101036.69;;;19.22;57.55
58311;BME280;45001;52.218;5.154;2022-10-16T05:06:13;101042.53;;;19.32;57.28
58311;BME280;45001;52.218;5.154;2022-10-16T05:08:38;101047.34;;;19.37;57.09
58311;BME280;45001;52.218;5.154;2022-10-16T05:11:04;101046.09;;;19.46;56.92
58311;BME280;45001;52.218;5.154;2022-10-16T05:13:29;101062.34;;;19.60;56.57
58311;BME280;45001;52.218;5.154;2022-10-16T05:15:54;101062.78;;;19.63;56.64
58311;BME280;45001;52.218;5.154;2022-10-16T05:18:19;101061.97;;;19.63;56.46
58311;BME280;45001;52.218;5.154;2022-10-16T05:20:45;101068.59;;;19.60;56.66
58311;BME280;45001;52.218;5.154;2022-10-16T05:23:10;101078.97;;;19.56;56.82
58311;BME280;45001;52.218;5.154;2022-10-16T05:25:37;101068.78;;;19.52;56.78
58311;BME280;45001;52.218;5.154;2022-10-16T05:28:02;101080.22;;;19.47;57.03
58311;BME280;45001;52.218;5.154;2022-10-16T05:30:28;101080.63;;;19.44;56.99
58311;BME280;45001;52.218;5.154;2022-10-16T05:32:53;101084.75;;;19.40;57.23
58311;BME280;45001;52.218;5.154;2022-10-16T05:35:19;101092.47;;;19.36;57.13
58311;BME280;45001;52.218;5.154;2022-10-16T05:37:44;101093.88;;;19.32;57.48
58311;BME280;45001;52.218;5.154;2022-10-16T05:40:10;101098.47;;;19.32;57.40
58311;BME280;45001;52.218;5.154;2022-10-16T05:42:36;101100.34;;;19.31;57.36
58311;BME280;45001;52.218;5.154;2022-10-16T05:45:03;101108.66;;;19.30;57.55
58311;BME280;45001;52.218;5.154;2022-10-16T05:47:28;101110.09;;;19.26;57.56
58311;BME280;45001;52.218;5.154;2022-10-16T05:49:54;101112.19;;;19.24;57.69
58311;BME280;45001;52.218;5.154;2022-10-16T05:52:19;101119.66;;;19.22;57.70
58311;BME280;45001;52.218;5.154;2022-10-16T05:54:45;101123.38;;;19.21;57.72
58311;BME280;45001;52.218;5.154;2022-10-16T05:57:10;101126.69;;;19.16;58.14
58311;BME280;45001;52.218;5.154;2022-10-16T05:59:35;101124.19;;;19.14;57.82
58311;BME280;45001;52.218;5.154;2022-10-16T06:02:00;101134.38;;;19.12;57.94
58311;BME280;45001;52.218;5.154;2022-10-16T06:04:26;101141.19;;;19.08;58.20
58311;BME280;45001;52.218;5.154;2022-10-16T06:06:51;101132.44;;;19.06;58.07
58311;BME280;45001;52.218;5.154;2022-10-16T06:09:16;101150.72;;;19.04;58.18
58311;BME280;45001;52.218;5.154;2022-10-16T06:11:42;101144.50;;;19.04;58.09
58311;BME280;45001;52.218;5.154;2022-10-16T06:14:08;101137.41;;;19.03;58.14
58311;BME280;45001;52.218;5.154;2022-10-16T06:16:35;101146.38;;;19.03;58.09
58311;BME280;45001;52.218;5.154;2022-10-16T06:19:00;101139.03;;;18.97;59.16
58311;BME280;45001;52.218;5.154;2022-10-16T06:21:27;101138.22;;;18.96;59.20
58311;BME280;45001;52.218;5.154;2022-10-16T06:23:54;101146.13;;;18.98;58.86
58311;BME280;45001;52.218;5.154;2022-10-16T06:26:22;101133.88;;;18.95;59.09
58311;BME280;45001;52.218;5.154;2022-10-16T06:28:48;101131.16;;;18.95;59.15
58311;BME280;45001;52.218;5.154;2022-10-16T06:31:14;101133.19;;;18.93;59.18
58311;BME280;45001;52.218;5.154;2022-10-16T06:33:40;101132.75;;;18.90;59.05
58311;BME280;45001;52.218;5.154;2022-10-16T06:36:14;101152.72;;;18.89;58.93
58311;BME280;45001;52.218;5.154;2022-10-16T06:38:40;101151.03;;;18.88;59.36
58311;BME280;45001;52.218;5.154;2022-10-16T06:41:06;101150.22;;;18.87;59.17
58311;BME280;45001;52.218;5.154;2022-10-16T06:43:32;101151.69;;;18.90;59.25
58311;BME280;45001;52.218;5.154;2022-10-16T06:46:00;101148.59;;;18.93;58.96
58311;BME280;45001;52.218;5.154;2022-10-16T06:48:26;101156.69;;;18.93;58.90
58311;BME280;45001;52.218;5.154;2022-10-16T06:51:02;101156.69;;;18.93;59.05
58311;BME280;45001;52.218;5.154;2022-10-16T06:53:31;101163.16;;;18.92;58.93
58311;BME280;45001;52.218;5.154;2022-10-16T06:55:57;101163.16;;;18.92;59.00
58311;BME280;45001;52.218;5.154;2022-10-16T06:58:23;101165.41;;;18.88;58.83
58311;BME280;45001;52.218;5.154;2022-10-16T07:00:55;101172.88;;;18.86;59.17
58311;BME280;45001;52.218;5.154;2022-10-16T07:03:20;101178.28;;;18.86;59.17
58311;BME280;45001;52.218;5.154;2022-10-16T07:05:46;101186.56;;;18.85;58.92
58311;BME280;45001;52.218;5.154;2022-10-16T07:08:11;101193.00;;;18.84;59.13
58311;BME280;45001;52.218;5.154;2022-10-16T07:10:36;101206.03;;;18.80;59.18
58311;BME280;45001;52.218;5.154;2022-10-16T07:13:05;101196.13;;;18.81;59.22
58311;BME280;45001;52.218;5.154;2022-10-16T07:15:32;101206.22;;;18.78;59.31
58311;BME280;45001;52.218;5.154;2022-10-16T07:17:57;101200.19;;;18.76;59.31
58311;BME280;45001;52.218;5.154;2022-10-16T07:20:22;101213.69;;;18.76;59.13
58311;BME280;45001;52.218;5.154;2022-10-16T07:22:48;101222.84;;;18.75;59.34
58311;BME280;45001;52.218;5.154;2022-10-16T07:25:13;101215.75;;;18.74;59.24
58311;BME280;45001;52.218;5.154;2022-10-16T07:27:38;101224.91;;;18.73;59.20
58311;BME280;45001;52.218;5.154;2022-10-16T07:30:04;101228.81;;;18.71;59.28
58311;BME280;45001;52.218;5.154;2022-10-16T07:32:31;101242.50;;;18.69;59.16
58311;BME280;45001;52.218;5.154;2022-10-16T07:34:56;101244.19;;;18.70;59.39
58311;BME280;45001;52.218;5.154;2022-10-16T07:37:21;101244.38;;;18.69;59.28
58311;BME280;45001;52.218;5.154;2022-10-16T07:39:47;101252.47;;;18.69;59.26
58311;BME280;45001;52.218;5.154;2022-10-16T07:42:12;101266.19;;;18.67;59.52
58311;BME280;45001;52.218;5.154;2022-10-16T07:44:37;101271.56;;;18.67;59.36
58311;BME280;45001;52.218;5.154;2022-10-16T07:47:03;101283.63;;;18.65;59.32
58311;BME280;45001;52.218;5.154;2022-10-16T07:49:28;101280.91;;;18.65;59.52
58311;BME280;45001;52.218;5.154;2022-10-16T07:51:53;101282.16;;;18.62;59.51
58311;BME280;45001;52.218;5.154;2022-10-16T07:54:19;101279.63;;;18.60;59.76
58311;BME280;45001;52.218;5.154;2022-10-16T07:56:44;101276.09;;;18.60;59.66
58311;BME280;45001;52.218;5.154;2022-10-16T07:59:10;101284.22;;;18.60;59.63
58311;BME280;45001;52.218;5.154;2022-10-16T08:01:35;101291.44;;;18.59;59.67
58311;BME280;45001;52.218;5.154;2022-10-16T08:04:00;101294.34;;;18.58;59.74
58311;BME280;45001;52.218;5.154;2022-10-16T08:06:25;101297.03;;;18.58;59.67
58311;BME280;45001;52.218;5.154;2022-10-16T08:08:51;101292.69;;;18.57;59.64
58311;BME280;45001;52.218;5.154;2022-10-16T08:11:16;101304.50;;;18.56;59.61
58311;BME280;45001;52.218;5.154;2022-10-16T08:13:42;101311.97;;;18.54;59.74
58311;BME280;45001;52.218;5.154;2022-10-16T08:16:07;101311.59;;;18.57;59.75
58311;BME280;45001;52.218;5.154;2022-10-16T08:18:34;101318.41;;;18.53;59.81
58311;BME280;45001;52.218;5.154;2022-10-16T08:21:01;101316.53;;;18.53;59.87
58311;BME280;45001;52.218;5.154;2022-10-16T08:23:27;101319.41;;;18.52;60.18
58311;BME280;45001;52.218;5.154;2022-10-16T08:25:55;101323.53;;;18.48;60.05
58311;BME280;45001;52.218;5.154;2022-10-16T08:28:21;101326.69;;;18.51;59.92
58311;BME280;45001;52.218;5.154;2022-10-16T08:30:47;101332.09;;;18.51;59.93
58311;BME280;45001;52.218;5.154;2022-10-16T08:33:13;101317.75;;;18.51;59.98
58311;BME280;45001;52.218;5.154;2022-10-16T08:35:38;101333.97;;;18.51;59.92
58311;BME280;45001;52.218;5.154;2022-10-16T08:38:04;101332.28;;;18.50;59.96
58311;BME280;45001;52.218;5.154;2022-10-16T08:40:31;101332.66;;;18.47;59.98
58311;BME280;45001;52.218;5.154;2022-10-16T08:51:04;101345.91;;;18.42;60.14
58311;BME280;45001;52.218;5.154;2022-10-16T08:53:45;101362.34;;;18.47;60.07
58311;BME280;45001;52.218;5.154;2022-10-16T08:56:13;101363.38;;;18.46;59.95
58311;BME280;45001;52.218;5.154;2022-10-16T08:58:39;101372.91;;;18.42;60.17
58311;BME280;45001;52.218;5.154;2022-10-16T09:01:11;101373.72;;;18.42;60.22
58311;BME280;45001;52.218;5.154;2022-10-16T09:12:28;101393.19;;;18.37;60.23
58311;BME280;45001;52.218;5.154;2022-10-16T09:15:12;101398.03;;;18.42;60.29
58311;BME280;45001;52.218;5.154;2022-10-16T09:17:55;101402.97;;;18.38;60.47
58311;BME280;45001;52.218;5.154;2022-10-16T09:25:30;101415.44;;;18.39;60.43
58311;BME280;45001;52.218;5.154;2022-10-16T09:27:56;101428.97;;;18.39;60.36
58311;BME280;45001;52.218;5.154;2022-10-16T09:30:22;101412.75;;;18.39;60.43
58311;BME280;45001;52.218;5.154;2022-10-16T09:32:50;101416.28;;;18.40;60.28
58311;BME280;45001;52.218;5.154;2022-10-16T09:35:19;101421.69;;;18.40;60.37
58311;BME280;45001;52.218;5.154;2022-10-16T09:37:47;101421.88;;;18.38;60.35
58311;BME280;45001;52.218;5.154;2022-10-16T09:48:21;101436.19;;;18.39;60.83
58311;BME280;45001;52.218;5.154;2022-10-16T09:51:00;101440.59;;;18.40;60.45
58311;BME280;45001;52.218;5.154;2022-10-16T09:53:38;101431.66;;;18.39;60.53
58311;BME280;45001;52.218;5.154;2022-10-16T09:56:04;101440.59;;;18.40;60.51
58311;BME280;45001;52.218;5.154;2022-10-16T09:58:32;101436.19;;;18.39;60.48
58311;BME280;45001;52.218;5.154;2022-10-16T10:00:58;101445.16;;;18.39;60.65
58311;BME280;45001;52.218;5.154;2022-10-16T10:03:35;101447.00;;;18.39;60.61
58311;BME280;45001;52.218;5.154;2022-10-16T10:06:24;101443.28;;;18.40;60.54
58311;BME280;45001;52.218;5.154;2022-10-16T10:09:23;101439.75;;;18.39;60.59
58311;BME280;45001;52.218;5.154;2022-10-16T10:11:54;101445.16;;;18.39;60.60
58311;BME280;45001;52.218;5.154;2022-10-16T10:14:37;101450.72;;;18.38;60.62
58311;BME280;45001;52.218;5.154;2022-10-16T10:22:45;101451.56;;;18.38;60.63
58311;BME280;45001;52.218;5.154;2022-10-16T10:35:22;101478.34;;;18.70;61.92
58311;BME280;45001;52.218;5.154;2022-10-16T10:38:16;101478.22;;;18.93;62.31
58311;BME280;45001;52.218;5.154;2022-10-16T10:41:05;101487.13;;;19.08;61.60
58311;BME280;45001;52.218;5.154;2022-10-16T10:46:32;101482.53;;;18.87;62.87
58311;BME280;45001;52.218;5.154;2022-10-16T10:51:54;101496.16;;;18.64;63.17
58311;BME280;45001;52.218;5.154;2022-10-16T10:54:34;101499.22;;;18.61;63.11
58311;BME280;45001;52.218;5.154;2022-10-16T10:57:11;101494.84;;;18.60;63.20
58311;BME280;45001;52.218;5.154;2022-10-16T11:02:45;101499.78;;;18.56;63.11
58311;BME280;45001;52.218;5.154;2022-10-16T11:08:16;101508.06;;;18.55;62.86
58311;BME280;45001;52.218;5.154;2022-10-16T11:10:50;101512.63;;;18.54;62.79
58311;BME280;45001;52.218;5.154;2022-10-16T11:13:29;101511.78;;;18.54;62.73
58311;BME280;45001;52.218;5.154;2022-10-16T11:16:03;101512.63;;;18.54;62.39
58311;BME280;45001;52.218;5.154;2022-10-16T11:18:51;101510.13;;;18.53;62.51
58311;BME280;45001;52.218;5.154;2022-10-16T11:21:19;101513.47;;;18.55;62.20
58311;BME280;45001;52.218;5.154;2022-10-16T11:23:55;101519.88;;;18.54;62.21
58311;BME280;45001;52.218;5.154;2022-10-16T11:26:33;101522.59;;;18.54;62.13
58311;BME280;45001;52.218;5.154;2022-10-16T11:29:01;101522.59;;;18.54;62.01
58311;BME280;45001;52.218;5.154;2022-10-16T11:31:38;101525.09;;;18.55;61.82
58311;BME280;45001;52.218;5.154;2022-10-16T11:39:24;101533.38;;;18.54;61.74
58311;BME280;45001;52.218;5.154;2022-10-16T11:41:55;101522.59;;;18.54;61.82
58311;BME280;45001;52.218;5.154;2022-10-16T11:47:23;101543.34;;;18.53;61.36
58311;BME280;45001;52.218;5.154;2022-10-16T11:49:55;101539.81;;;18.53;61.53
58311;BME280;45001;52.218;5.154;2022-10-16T11:55:47;101547.94;;;18.53;61.48
58311;BME280;45001;52.218;5.154;2022-10-16T11:58:19;101551.63;;;18.52;61.25
58311;BME280;45001;52.218;5.154;2022-10-16T12:00:58;101552.47;;;18.52;61.37
58311;BME280;45001;52.218;5.154;2022-10-16T12:03:34;101551.63;;;18.52;61.24
58311;BME280;45001;52.218;5.154;2022-10-16T12:08:43;101559.75;;;18.52;60.97
58311;BME280;45001;52.218;5.154;2022-10-16T12:11:41;101557.03;;;18.52;61.10
58311;BME280;45001;52.218;5.154;2022-10-16T12:16:39;101565.13;;;18.52;60.73
58311;BME280;45001;52.218;5.154;2022-10-16T12:19:16;101567.00;;;18.51;60.88
58311;BME280;45001;52.218;5.154;2022-10-16T12:21:43;101556.22;;;18.51;61.06
58311;BME280;45001;52.218;5.154;2022-10-16T12:24:38;101562.44;;;18.52;60.46
58311;BME280;45001;52.218;5.154;2022-10-16T12:27:29;101565.13;;;18.52;60.68
58311;BME280;45001;52.218;5.154;2022-10-16T12:30:00;101565.78;;;18.54;60.76
58311;BME280;45001;52.218;5.154;2022-10-16T12:32:34;101572.03;;;18.54;60.67
58311;BME280;45001;52.218;5.154;2022-10-16T12:35:02;101578.28;;;18.55;60.31
58311;BME280;45001;52.218;5.154;2022-10-16T12:37:37;101579.47;;;18.52;60.31
58311;BME280;45001;52.218;5.154;2022-10-16T12:42:49;101576.97;;;18.51;60.29
58311;BME280;45001;52.218;5.154;2022-10-16T12:47:52;101569.91;;;18.50;60.31
58311;BME280;45001;52.218;5.154;2022-10-16T12:50:27;101571.59;;;18.51;60.18
58311;BME280;45001;52.218;5.154;2022-10-16T12:52:53;101572.41;;;18.51;60.29
58311;BME280;45001;52.218;5.154;2022-10-16T12:55:20;101577.34;;;18.48;60.33
58311;BME280;45001;52.218;5.154;2022-10-16T13:14:35;101586.09;;;18.50;59.96
58311;BME280;45001;52.218;5.154;2022-10-16T13:27:48;101593.19;;;18.51;59.92
58311;BME280;45001;52.218;5.154;2022-10-16T13:32:49;101595.03;;;18.50;59.97
58311;BME280;45001;52.218;5.154;2022-10-16T13:35:35;101619.16;;;18.52;59.83
58311;BME280;45001;52.218;5.154;2022-10-16T13:38:16;101612.91;;;18.51;59.98
58311;BME280;45001;52.218;5.154;2022-10-16T13:41:17;101619.31;;;18.50;59.82
58311;BME280;45001;52.218;5.154;2022-10-16T13:43:45;101616.44;;;18.52;59.88
58311;BME280;45001;52.218;5.154;2022-10-16T13:46:13;101616.63;;;18.50;59.83
58311;BME280;45001;52.218;5.154;2022-10-16T13:48:39;101621.84;;;18.52;59.76
58311;BME280;45001;52.218;5.154;2022-10-16T13:51:24;101616.44;;;18.52;59.86
58311;BME280;45001;52.218;5.154;2022-10-16T13:53:50;101628.28;;;18.51;59.65
58311;BME280;45001;52.218;5.154;2022-10-16T13:56:18;101615.78;;;18.50;59.79
58311;BME280;45001;52.218;5.154;2022-10-16T13:58:44;101621.19;;;18.50;59.75
58311;BME280;45001;52.218;5.154;2022-10-16T14:01:25;101622.69;;;18.52;59.68
58311;BME280;45001;52.218;5.154;2022-10-16T14:03:53;101619.16;;;18.52;59.76
58311;BME280;45001;52.218;5.154;2022-10-16T14:06:20;101622.69;;;18.52;59.57
58311;BME280;45001;52.218;5.154;2022-10-16T14:08:53;101625.38;;;18.52;59.65
58311;BME280;45001;52.218;5.154;2022-10-16T14:11:22;101629.94;;;18.52;59.35
58311;BME280;45001;52.218;5.154;2022-10-16T14:13:49;101631.81;;;18.51;59.81
58311;BME280;45001;52.218;5.154;2022-10-16T14:16:20;101641.41;;;18.54;59.90
58311;BME280;45001;52.218;5.154;2022-10-16T14:18:55;101632.66;;;18.52;59.65
58311;BME280;45001;52.218;5.154;2022-10-16T14:21:21;101628.06;;;18.52;59.73
58311;BME280;45001;52.218;5.154;2022-10-16T14:23:47;101621.84;;;18.52;59.74
58311;BME280;45001;52.218;5.154;2022-10-16T14:26:15;101623.72;;;18.51;59.62
58311;BME280;45001;52.218;5.154;2022-10-16T14:28:41;101611.03;;;18.52;59.70
58311;BME280;45001;52.218;5.154;2022-10-16T14:31:27;101615.63;;;18.51;59.76
58311;BME280;45001;52.218;5.154;2022-10-16T14:33:53;101620.84;;;18.53;59.42
58311;BME280;45001;52.218;5.154;2022-10-16T14:36:19;101626.25;;;18.53;59.56
58311;BME280;45001;52.218;5.154;2022-10-16T14:39:06;101627.25;;;18.52;59.64
58311;BME280;45001;52.218;5.154;2022-10-16T14:41:47;101623.91;;;18.50;59.67
58311;BME280;45001;52.218;5.154;2022-10-16T14:44:13;101631.00;;;18.51;59.68
58311;BME280;45001;52.218;5.154;2022-10-16T14:46:41;101639.28;;;18.49;59.77
58311;BME280;45001;52.218;5.154;2022-10-16T14:51:40;101641.97;;;18.49;59.64
58311;BME280;45001;52.218;5.154;2022-10-16T14:54:11;101637.41;;;18.50;59.70
58311;BME280;45001;52.218;5.154;2022-10-16T14:56:58;101638.06;;;18.52;59.59
58311;BME280;45001;52.218;5.154;2022-10-16T14:59:39;101632.81;;;18.50;59.63